Time;durP1;ratioP1;P1;durP2;ratioP2;P2;SDS_P1;SDS_P2;PMS_P1;PMS_P2;Temp;Humidity;BMP_temperature;BMP_pressure;BME280_temperature;BME280_humidity;BME280_pressure;Samples;Min_cycle;Max_cycle;Signal;HPM_P1;HPM_P2
2022/06/05 08:13:03;;;;;;;;;;;;;;;23.76;80.50;96796.41;4248344;27;10296;-65
2022/06/05 08:15:10;;;;;;;;;;;;;;;24.08;79.93;96819.47;4230577;28;5608;-65
2022/06/05 08:17:17;;;;;;;;;;;;;;;24.36;78.96;96837.69;4250681;27;5660;-66
2022/06/05 08:19:22;;;;;;;;;;;;;;;24.51;78.05;96847.59;4245027;27;5834;-65
2022/06/05 08:21:26;;;;;;;;;;;;;;;24.64;77.76;96855.06;4265871;27;5685;-66
2022/06/05 08:23:29;;;;;;;;;;;;;;;24.71;77.31;96859.34;4263205;27;5096;-66
2022/06/05 08:25:32;;;;;;;;;;;;;;;24.76;76.76;96856.59;4266084;27;5587;-65
2022/06/05 08:27:37;;;;;;;;;;;;;;;24.80;76.07;96858.44;4265883;27;5714;-65
2022/06/05 08:29:43;;;;;;;;;;;;;;;24.84;75.49;96872.22;4262387;27;5480;-65
2022/06/05 08:31:46;;;;;;;;;;;;;;;24.86;75.55;96868.16;4263494;27;5747;-65
2022/06/05 08:33:50;;;;;;;;;;;;;;;24.88;74.89;96871.38;4247071;27;6279;-65
2022/06/05 08:35:54;;;;;;;;;;;;;;;24.89;74.58;96845.13;4264871;27;5587;-65
2022/06/05 08:42:57;;;;;;;;;;;;;;;25.02;73.65;96795.81;4246894;27;5610;-66
2022/06/05 08:45:12;;;;;;;;;;;;;;;25.06;73.77;96780.66;4231466;28;5691;-66
2022/06/05 08:47:20;;;;;;;;;;;;;;;25.10;73.59;96799.81;4232578;27;5706;-65
2022/06/05 08:49:31;;;;;;;;;;;;;;;25.11;72.92;96786.00;4230788;27;5700;-65
2022/06/05 08:51:48;;;;;;;;;;;;;;;25.11;72.90;96798.72;4231693;27;5687;-65
2022/06/05 08:53:55;;;;;;;;;;;;;;;25.12;72.70;96816.56;4248736;27;5614;-65
2022/06/05 08:56:00;;;;;;;;;;;;;;;25.17;72.49;96828.16;4248253;27;5602;-65
2022/06/05 08:58:10;;;;;;;;;;;;;;;25.18;72.36;96837.06;4248410;27;5711;-65
2022/06/05 09:00:19;;;;;;;;;;;;;;;25.15;72.45;96843.06;4243246;27;5609;-65
2022/06/05 09:02:26;;;;;;;;;;;;;;;25.12;72.38;96838.19;4246349;27;5836;-64
2022/06/05 09:04:52;;;;;;;;;;;;;;;25.15;71.90;96832.25;4248527;27;5670;-65
2022/06/05 09:06:59;;;;;;;;;;;;;;;25.19;71.73;96827.88;4248230;27;5675;-66
2022/06/05 09:09:05;;;;;;;;;;;;;;;25.22;71.05;96822.69;4237417;27;5616;-66
2022/06/05 09:11:15;;;;;;;;;;;;;;;25.30;71.04;96818.56;4239356;27;5745;-66
2022/06/05 09:13:24;;;;;;;;;;;;;;;25.34;70.35;96816.88;4231548;27;6305;-66
2022/06/05 09:15:31;;;;;;;;;;;;;;;25.31;70.32;96814.75;4233036;28;5600;-66
2022/06/05 09:17:35;;;;;;;;;;;;;;;25.35;70.21;96813.06;4223387;28;5836;-66
2022/06/05 09:19:40;;;;;;;;;;;;;;;25.35;69.64;96802.25;4223849;27;5598;-66
2022/06/05 09:21:52;;;;;;;;;;;;;;;25.39;69.63;96797.91;4220250;28;6432;-65
2022/06/05 09:24:06;;;;;;;;;;;;;;;25.45;69.31;96793.22;4231895;28;5665;-66
2022/06/05 09:26:16;;;;;;;;;;;;;;;25.46;68.90;96798.34;4236467;28;5624;-65
2022/06/05 09:28:50;;;;;;;;;;;;;;;25.42;68.48;96816.25;4236380;28;5646;-67
2022/06/05 09:31:02;;;;;;;;;;;;;;;25.44;68.33;96813.25;4231871;28;5609;-66
2022/06/05 09:33:16;;;;;;;;;;;;;;;25.47;68.08;96816.19;4213247;28;5742;-66
2022/06/05 09:35:23;;;;;;;;;;;;;;;25.44;67.80;96814.06;4231251;28;5738;-65
2022/06/05 09:37:34;;;;;;;;;;;;;;;25.42;67.72;96824.38;4227509;28;5752;-66
2022/06/05 09:39:45;;;;;;;;;;;;;;;25.44;67.43;96822.19;4216734;28;5824;-66
2022/06/05 09:41:59;;;;;;;;;;;;;;;25.47;67.13;96829.72;4226065;28;5606;-65
2022/06/05 09:44:18;;;;;;;;;;;;;;;25.45;66.96;96837.31;4231707;28;5804;-66
2022/06/05 09:46:33;;;;;;;;;;;;;;;25.47;66.44;96845.97;4233462;28;5712;-66
2022/06/05 09:48:46;;;;;;;;;;;;;;;25.48;66.17;96858.41;4230432;28;5787;-63
2022/06/05 09:50:51;;;;;;;;;;;;;;;25.52;66.31;96858.66;4233122;28;5719;-64
2022/06/05 09:52:54;;;;;;;;;;;;;;;25.55;65.72;96863.47;4216376;28;5720;-64
2022/06/05 09:55:04;;;;;;;;;;;;;;;25.53;65.39;96861.06;4219874;28;5777;-64
2022/06/05 09:59:51;;;;;;;;;;;;;;;25.48;65.50;96850.31;4216593;28;6315;-64
2022/06/05 10:01:57;;;;;;;;;;;;;;;25.46;65.26;96841.63;4226416;27;5719;-65
2022/06/05 10:04:01;;;;;;;;;;;;;;;25.43;64.81;96863.06;4229113;28;6356;-64
2022/06/05 10:06:18;;;;;;;;;;;;;;;25.40;64.80;96917.78;4227074;28;5833;-65
2022/06/05 10:08:24;;;;;;;;;;;;;;;25.36;64.62;96927.53;4232546;28;5676;-65
2022/06/05 10:10:35;;;;;;;;;;;;;;;25.31;64.42;96919.47;4230889;28;6975;-65
2022/06/05 10:12:45;;;;;;;;;;;;;;;25.25;64.39;96922.19;4219467;28;5724;-66
2022/06/05 10:14:53;;;;;;;;;;;;;;;25.21;64.18;96918.47;4229549;28;5734;-64
2022/06/05 10:17:09;;;;;;;;;;;;;;;25.22;64.00;96913.84;4219282;28;5708;-65
2022/06/05 10:19:34;;;;;;;;;;;;;;;25.18;63.78;96839.78;4218144;28;5656;-64
2022/06/05 10:21:42;;;;;;;;;;;;;;;25.09;63.91;96852.31;4231772;28;5744;-64
2022/06/05 10:23:52;;;;;;;;;;;;;;;25.02;64.16;96930.25;4218209;28;5756;-64
2022/06/05 10:26:01;;;;;;;;;;;;;;;24.97;63.76;96934.59;4219286;28;5771;-65
2022/06/05 10:28:10;;;;;;;;;;;;;;;24.92;63.85;96920.31;4216098;28;5774;-66
2022/06/05 10:30:17;;;;;;;;;;;;;;;24.90;63.64;96892.72;4226200;27;5701;-66
2022/06/05 10:32:35;;;;;;;;;;;;;;;24.87;63.95;96891.38;4230360;28;6975;-66
2022/06/05 10:34:44;;;;;;;;;;;;;;;24.85;63.38;96909.78;4226449;28;5755;-67
2022/06/05 10:36:53;;;;;;;;;;;;;;;24.83;63.50;96911.97;4215923;27;5824;-69
2022/06/05 10:39:03;;;;;;;;;;;;;;;24.84;63.30;96924.41;4231017;28;5718;-68
2022/06/05 10:41:19;;;;;;;;;;;;;;;24.83;63.52;96939.03;4230398;28;5794;-67
2022/06/05 10:43:25;;;;;;;;;;;;;;;24.82;62.99;96945.50;4226816;28;6417;-68
2022/06/05 10:45:39;;;;;;;;;;;;;;;24.82;63.08;96959.03;4220730;28;5699;-68
2022/06/05 10:48:06;;;;;;;;;;;;;;;24.82;62.53;96952.81;4245438;27;5721;-68
2022/06/05 10:50:16;;;;;;;;;;;;;;;24.81;62.61;96957.41;4230503;27;5617;-68
2022/06/05 10:52:29;;;;;;;;;;;;;;;24.80;62.13;96954.97;4232581;28;6491;-66
2022/06/05 10:54:39;;;;;;;;;;;;;;;24.80;62.29;96958.47;4236033;27;5712;-68
2022/06/05 10:56:50;;;;;;;;;;;;;;;24.80;61.82;96968.50;4230970;28;5767;-68
2022/06/05 10:59:00;;;;;;;;;;;;;;;24.80;61.85;96961.19;4217206;27;5732;-68
2022/06/05 11:01:21;;;;;;;;;;;;;;;24.82;61.57;96953.63;4232126;27;5688;-68
2022/06/05 11:03:37;;;;;;;;;;;;;;;24.85;61.84;96957.66;4228512;27;5692;-68
2022/06/05 11:05:52;;;;;;;;;;;;;;;24.87;61.76;96937.34;4231670;28;5787;-68
2022/06/05 11:08:09;;;;;;;;;;;;;;;24.90;61.38;96934.09;4221388;28;5771;-68
2022/06/05 11:10:23;;;;;;;;;;;;;;;24.96;61.20;96938.38;4232390;28;5696;-68
2022/06/05 11:15:04;;;;;;;;;;;;;;;25.07;61.02;96938.34;4216492;28;5762;-68
2022/06/05 11:17:24;;;;;;;;;;;;;;;25.10;60.67;96940.47;4224161;28;5717;-68
2022/06/05 11:19:36;;;;;;;;;;;;;;;25.12;60.76;96932.88;4223366;28;5832;-68
2022/06/05 11:21:42;;;;;;;;;;;;;;;25.11;60.77;96934.78;4229681;27;5669;-68
2022/06/05 11:23:49;;;;;;;;;;;;;;;25.12;60.77;96944.50;4215674;28;5764;-68
2022/06/05 11:25:59;;;;;;;;;;;;;;;25.13;60.34;96937.19;4229423;28;5700;-68
2022/06/05 11:28:27;;;;;;;;;;;;;;;25.14;60.32;96949.63;4230489;28;5704;-68
2022/06/05 11:30:43;;;;;;;;;;;;;;;25.16;60.57;96952.88;4210915;28;5703;-68
2022/06/05 11:32:57;;;;;;;;;;;;;;;25.19;60.61;96957.72;4221610;28;5840;-68
2022/06/05 11:35:13;;;;;;;;;;;;;;;25.19;60.56;96947.69;4214159;28;5748;-66
2022/06/05 11:37:28;;;;;;;;;;;;;;;25.19;60.51;96955.00;4224445;28;5789;-66
2022/06/05 11:39:37;;;;;;;;;;;;;;;25.18;60.50;96951.50;4214403;28;5745;-69
2022/06/05 11:41:44;;;;;;;;;;;;;;;25.17;60.27;96943.66;4230766;28;5799;-68
2022/06/05 11:43:53;;;;;;;;;;;;;;;25.18;60.25;96942.56;4229800;28;5740;-68
2022/06/05 11:46:19;;;;;;;;;;;;;;;25.24;60.32;96938.72;4222295;28;5815;-70
2022/06/05 11:48:29;;;;;;;;;;;;;;;25.24;60.36;96936.81;4229247;27;5736;-65
2022/06/05 11:50:39;;;;;;;;;;;;;;;25.25;60.03;96932.22;4237953;27;5700;-66
2022/06/05 11:52:50;;;;;;;;;;;;;;;25.24;60.11;96923.28;4215106;28;5836;-66
2022/06/05 11:55:02;;;;;;;;;;;;;;;25.26;59.97;96914.94;4221597;28;5723;-66
2022/06/05 11:57:14;;;;;;;;;;;;;;;25.28;59.90;96918.16;4222743;27;6692;-67
2022/06/05 11:59:28;;;;;;;;;;;;;;;25.30;59.64;96910.53;4209823;28;5707;-66
2022/06/05 12:01:38;;;;;;;;;;;;;;;25.34;59.51;96917.00;4219385;28;5860;-66
2022/06/05 12:03:48;;;;;;;;;;;;;;;25.33;59.22;96907.25;4225425;28;5684;-66
2022/06/05 12:06:00;;;;;;;;;;;;;;;25.35;58.93;96913.19;4221981;28;5719;-67
2022/06/05 12:08:07;;;;;;;;;;;;;;;25.40;59.13;96913.16;4229924;28;5819;-66
2022/06/05 12:10:19;;;;;;;;;;;;;;;25.42;58.74;96913.69;4231647;28;5087;-65
2022/06/05 12:12:27;;;;;;;;;;;;;;;25.42;58.95;96921.78;4228159;28;5712;-66
2022/06/05 12:14:34;;;;;;;;;;;;;;;25.38;58.74;96920.75;4230959;28;5716;-66
2022/06/05 12:16:45;;;;;;;;;;;;;;;25.35;58.98;96924.00;4230791;28;5699;-66
2022/06/05 12:18:54;;;;;;;;;;;;;;;25.35;58.87;96920.50;4218253;27;6737;-67
2022/06/05 12:21:07;;;;;;;;;;;;;;;25.36;58.62;96914.81;4230884;28;5716;-64
2022/06/05 12:23:18;;;;;;;;;;;;;;;25.39;58.43;96919.66;4231539;27;5695;-68
2022/06/05 12:25:25;;;;;;;;;;;;;;;25.42;58.40;96912.88;4231044;27;5708;-66
2022/06/05 12:27:45;;;;;;;;;;;;;;;25.45;57.93;96915.81;4231820;28;5691;-67
2022/06/05 12:29:54;;;;;;;;;;;;;;;25.50;57.70;96909.56;4227440;28;5672;-67
2022/06/05 12:32:02;;;;;;;;;;;;;;;25.53;57.93;96904.38;4221873;28;5832;-66
2022/06/05 12:34:14;;;;;;;;;;;;;;;25.53;57.74;96904.38;4222812;27;5802;-66
2022/06/05 12:36:30;;;;;;;;;;;;;;;25.54;57.68;96911.41;4230291;28;5736;-66
2022/06/05 12:38:39;;;;;;;;;;;;;;;25.58;57.29;96902.69;4226155;28;5700;-66
2022/06/05 12:40:51;;;;;;;;;;;;;;;25.60;57.09;96908.66;4216523;28;5837;-66
2022/06/05 12:43:02;;;;;;;;;;;;;;;25.59;57.26;96886.16;4215162;28;5719;-67
2022/06/05 12:45:15;;;;;;;;;;;;;;;25.61;57.07;96894.03;4214502;28;5809;-67
2022/06/05 12:47:36;;;;;;;;;;;;;;;25.63;57.01;96889.94;4222452;28;5723;-69
2022/06/05 12:50:01;;;;;;;;;;;;;;;25.64;56.53;96883.41;4233360;28;5743;-67
2022/06/05 12:52:24;;;;;;;;;;;;;;;25.67;56.37;96876.63;4224009;28;6392;-65
2022/06/05 12:54:36;;;;;;;;;;;;;;;25.71;56.10;96872.25;4218120;28;5775;-65
2022/06/05 12:57:05;;;;;;;;;;;;;;;25.73;56.28;96879.03;4222566;28;5767;-65
2022/06/05 12:59:18;;;;;;;;;;;;;;;25.74;55.67;96877.13;4223373;28;5751;-65
2022/06/05 13:01:25;;;;;;;;;;;;;;;25.77;55.59;96881.94;4229204;28;5806;-66
2022/06/05 13:03:37;;;;;;;;;;;;;;;25.80;55.43;96875.94;4225036;27;5618;-64
2022/06/05 13:05:45;;;;;;;;;;;;;;;25.79;55.69;96866.22;4224847;28;5762;-66
2022/06/05 13:07:57;;;;;;;;;;;;;;;25.79;55.31;96869.72;4225503;28;5743;-65
2022/06/05 13:10:03;;;;;;;;;;;;;;;25.82;55.38;96874.59;4224336;28;5843;-67
2022/06/05 13:12:14;;;;;;;;;;;;;;;25.87;55.13;96875.63;4226804;27;5815;-66
2022/06/05 13:14:25;;;;;;;;;;;;;;;25.86;55.20;96869.38;4240044;27;5815;-66
2022/06/05 13:16:37;;;;;;;;;;;;;;;25.86;55.05;96880.22;4233529;27;8497;-63
2022/06/05 13:18:43;;;;;;;;;;;;;;;25.85;54.67;96881.31;4222555;28;5173;-64
2022/06/05 13:20:58;;;;;;;;;;;;;;;25.88;54.59;96883.44;4219295;28;5611;-65
2022/06/05 13:23:10;;;;;;;;;;;;;;;25.90;54.71;96875.84;4219837;28;5676;-64
2022/06/05 13:25:19;;;;;;;;;;;;;;;25.91;54.55;96874.72;4219595;28;5678;-64
2022/06/05 13:27:40;;;;;;;;;;;;;;;25.93;54.37;96869.81;4219699;28;5616;-64
2022/06/05 13:29:55;;;;;;;;;;;;;;;25.92;54.48;96876.34;4219596;28;5625;-64
2022/06/05 13:32:12;;;;;;;;;;;;;;;25.89;54.63;96871.50;4219472;28;5612;-64
2022/06/05 13:34:41;;;;;;;;;;;;;;;25.85;55.09;96859.66;4219925;28;6413;-64
2022/06/05 13:36:52;;;;;;;;;;;;;;;25.80;55.28;96860.50;4201543;28;5737;-64
2022/06/05 13:39:02;;;;;;;;;;;;;;;25.77;55.45;96860.28;4219900;28;5813;-64
2022/06/05 13:41:15;;;;;;;;;;;;;;;25.74;55.41;96863.59;4219598;28;5632;-64
2022/06/05 13:43:21;;;;;;;;;;;;;;;25.73;55.56;96865.47;4219641;28;5612;-64
2022/06/05 13:45:32;;;;;;;;;;;;;;;25.75;55.57;96857.06;4219973;28;5719;-65
2022/06/05 13:47:43;;;;;;;;;;;;;;;25.76;55.40;96853.25;4219540;28;5780;-64
2022/06/05 13:49:56;;;;;;;;;;;;;;;25.76;55.28;96853.25;4219770;28;5604;-65
2022/06/05 13:52:08;;;;;;;;;;;;;;;25.75;55.16;96860.56;4201473;28;5635;-65
2022/06/05 13:54:18;;;;;;;;;;;;;;;25.76;55.37;96864.09;4219489;28;6285;-65
2022/06/05 13:56:30;;;;;;;;;;;;;;;25.75;55.26;96867.91;4219809;28;5627;-64
2022/06/05 13:58:42;;;;;;;;;;;;;;;25.75;55.17;96879.53;4201226;28;5631;-64
2022/06/05 14:00:53;;;;;;;;;;;;;;;25.73;55.33;96889.03;4219234;28;5616;-64
2022/06/05 14:03:03;;;;;;;;;;;;;;;25.70;55.16;96911.25;4224837;28;5597;-64
2022/06/05 14:05:20;;;;;;;;;;;;;;;25.68;54.97;96916.13;4203048;28;5893;-64
2022/06/05 14:07:25;;;;;;;;;;;;;;;25.69;55.19;96923.16;4219265;28;5829;-64
2022/06/05 14:09:51;;;;;;;;;;;;;;;25.68;55.30;96945.91;4219187;28;5615;-64
2022/06/05 14:11:56;;;;;;;;;;;;;;;25.60;55.28;96973.63;4218851;28;5084;-64
2022/06/05 14:14:00;;;;;;;;;;;;;;;25.55;55.36;96944.69;4219199;28;5631;-64
2022/06/05 14:16:05;;;;;;;;;;;;;;;25.48;55.18;96922.53;4219166;28;6286;-64
2022/06/05 14:18:23;;;;;;;;;;;;;;;25.40;55.45;96923.19;4218835;28;5620;-64
2022/06/05 14:20:32;;;;;;;;;;;;;;;25.40;55.31;96920.47;4228109;28;5609;-64
2022/06/05 14:22:43;;;;;;;;;;;;;;;25.41;55.21;96936.44;4235733;28;5735;-64
2022/06/05 14:24:48;;;;;;;;;;;;;;;25.38;55.31;96928.88;4235976;28;5605;-64
2022/06/05 14:26:55;;;;;;;;;;;;;;;25.38;55.38;96931.59;4235358;28;5711;-64
2022/06/05 14:28:59;;;;;;;;;;;;;;;25.42;55.26;96934.53;4235809;28;5602;-64
2022/06/05 14:31:09;;;;;;;;;;;;;;;25.43;55.56;96926.13;4235034;28;5602;-64
2022/06/05 14:33:18;;;;;;;;;;;;;;;25.46;55.48;96920.13;4235170;28;5591;-64
2022/06/05 14:35:29;;;;;;;;;;;;;;;25.49;55.24;96924.19;4235342;28;5654;-64
2022/06/05 14:37:37;;;;;;;;;;;;;;;25.48;55.19;96928.78;4235180;28;5777;-64
2022/06/05 14:39:46;;;;;;;;;;;;;;;25.44;55.48;96927.72;4217076;28;5802;-64
2022/06/05 14:41:59;;;;;;;;;;;;;;;25.42;55.51;96939.94;4235501;28;5638;-64
2022/06/05 14:44:12;;;;;;;;;;;;;;;25.43;55.29;96945.06;4235411;28;5605;-64
2022/06/05 14:46:33;;;;;;;;;;;;;;;25.46;55.18;96949.09;4235244;28;5598;-64
2022/06/05 14:48:41;;;;;;;;;;;;;;;25.47;55.16;96959.63;4234855;28;5602;-64
2022/06/05 14:50:49;;;;;;;;;;;;;;;25.46;55.34;96966.13;4235452;28;5613;-64
2022/06/05 14:53:01;;;;;;;;;;;;;;;25.44;55.36;96975.63;4235708;28;5606;-64
2022/06/05 14:57:53;;;;;;;;;;;;;;;25.43;55.21;96974.84;4235566;28;5700;-64
2022/06/05 15:00:05;;;;;;;;;;;;;;;25.40;55.13;96986.22;4235362;28;5706;-64
2022/06/05 15:02:36;;;;;;;;;;;;;;;25.37;54.77;96981.41;4235411;28;5598;-64
2022/06/05 15:04:47;;;;;;;;;;;;;;;25.43;54.72;96968.59;4143377;28;5761;-64
2022/06/05 15:06:57;;;;;;;;;;;;;;;25.39;54.78;96971.09;4133816;28;5719;-64
2022/06/05 15:09:06;;;;;;;;;;;;;;;25.38;54.42;96977.59;4150087;28;5779;-64
2022/06/05 15:11:25;;;;;;;;;;;;;;;25.29;54.67;96973.88;4149428;28;5720;-64
2022/06/05 15:13:35;;;;;;;;;;;;;;;25.30;54.40;96975.47;4150004;28;5647;-64
2022/06/05 15:15:47;;;;;;;;;;;;;;;25.28;54.38;96972.25;4149952;28;6145;-64
2022/06/05 15:17:53;;;;;;;;;;;;;;;25.28;54.49;96972.25;4149892;28;5609;-64
2022/06/05 15:19:58;;;;;;;;;;;;;;;25.25;54.69;96976.31;4146284;28;5721;-64
2022/06/05 15:22:33;;;;;;;;;;;;;;;25.25;54.37;96979.03;4133658;28;5679;-64
2022/06/05 15:24:43;;;;;;;;;;;;;;;25.25;54.17;96983.63;4133648;28;5706;-65
2022/06/05 15:27:15;;;;;;;;;;;;;;;25.27;54.00;96983.38;4133623;28;6548;-64
2022/06/05 15:29:24;;;;;;;;;;;;;;;25.30;54.20;96991.72;4117322;28;5634;-64
2022/06/05 15:31:34;;;;;;;;;;;;;;;25.32;53.98;96996.84;4133396;28;5634;-64
2022/06/05 15:33:50;;;;;;;;;;;;;;;25.33;54.30;97001.97;4133362;28;5647;-64
2022/06/05 15:36:02;;;;;;;;;;;;;;;25.31;54.18;96998.75;4133549;28;5747;-64
2022/06/05 15:38:23;;;;;;;;;;;;;;;25.34;54.04;96998.16;4133679;28;5622;-64
2022/06/05 15:40:32;;;;;;;;;;;;;;;25.32;53.96;96997.66;4133539;28;5631;-64
2022/06/05 15:42:37;;;;;;;;;;;;;;;25.30;53.95;96994.44;4169714;28;5715;-65
2022/06/05 15:44:57;;;;;;;;;;;;;;;25.23;53.72;97007.47;4184688;28;5735;-64
2022/06/05 15:47:14;;;;;;;;;;;;;;;25.27;53.71;97013.13;4184757;28;5727;-64
2022/06/05 15:49:31;;;;;;;;;;;;;;;25.29;53.33;97013.66;4184577;28;5802;-64
2022/06/05 15:51:47;;;;;;;;;;;;;;;25.30;53.30;97007.94;4184394;28;5782;-64
2022/06/05 15:54:10;;;;;;;;;;;;;;;25.33;53.27;97012.00;4184549;28;5715;-65
2022/06/05 15:56:29;;;;;;;;;;;;;;;25.38;53.12;97022.78;4183231;28;5650;-64
2022/06/05 15:58:52;;;;;;;;;;;;;;;25.37;53.22;97024.69;4184032;28;7690;-64
2022/06/05 16:01:14;;;;;;;;;;;;;;;25.36;53.06;97036.56;4184160;28;5746;-64
2022/06/05 16:03:17;;;;;;;;;;;;;;;25.36;53.17;97039.28;4183097;28;5707;-64
2022/06/05 16:05:25;;;;;;;;;;;;;;;25.36;53.18;97047.41;4198749;28;5691;-65
2022/06/05 16:07:33;;;;;;;;;;;;;;;25.33;52.82;97045.28;4199482;28;5822;-64
2022/06/05 16:09:41;;;;;;;;;;;;;;;25.28;52.89;97048.03;4201148;28;5678;-64
2022/06/05 16:11:49;;;;;;;;;;;;;;;25.25;52.67;97045.84;4212784;28;5741;-64
2022/06/05 16:14:16;;;;;;;;;;;;;;;25.20;53.04;97038.59;4233280;28;5711;-64
2022/06/05 16:16:27;;;;;;;;;;;;;;;25.26;52.77;97039.38;4234360;28;5655;-65
2022/06/05 16:18:36;;;;;;;;;;;;;;;25.33;52.83;97041.75;4234373;27;5628;-65
2022/06/05 16:21:04;;;;;;;;;;;;;;;25.34;52.40;97035.25;4234638;28;5913;-65
2022/06/05 16:23:18;;;;;;;;;;;;;;;25.36;52.49;97036.56;4235331;28;5601;-64
2022/06/05 16:25:28;;;;;;;;;;;;;;;25.38;52.43;97020.88;4237798;28;7264;-64
2022/06/05 16:27:35;;;;;;;;;;;;;;;25.38;52.50;97012.78;4237937;28;5683;-64
2022/06/05 16:29:47;;;;;;;;;;;;;;;25.41;52.35;97014.09;4219387;28;7500;-65
2022/06/05 16:31:53;;;;;;;;;;;;;;;25.36;52.33;97012.22;4230245;27;5621;-64
2022/06/05 16:33:59;;;;;;;;;;;;;;;25.35;52.63;97010.59;4212782;28;5700;-63
2022/06/05 16:38:26;;;;;;;;;;;;;;;25.45;52.34;97018.66;4231828;27;5699;-66
2022/06/05 16:40:33;;;;;;;;;;;;;;;25.47;52.33;97021.88;4228762;28;5792;-62
2022/06/05 16:42:38;;;;;;;;;;;;;;;25.50;52.04;97029.47;4225848;28;5771;-62
2022/06/05 16:44:46;;;;;;;;;;;;;;;25.52;52.29;97042.69;4221620;28;5772;-61
2022/06/05 16:46:49;;;;;;;;;;;;;;;25.51;52.33;97041.09;4221059;28;5839;-63
2022/06/05 16:49:26;;;;;;;;;;;;;;;25.52;52.35;97031.88;4224043;28;5763;-62
2022/06/05 16:51:41;;;;;;;;;;;;;;;25.53;52.13;97028.06;4207363;28;6610;-63
2022/06/05 16:53:47;;;;;;;;;;;;;;;25.55;51.88;97032.09;4224223;28;6420;-62
2022/06/05 16:56:05;;;;;;;;;;;;;;;25.58;51.87;97025.31;4221562;28;5746;-62
2022/06/05 16:58:24;;;;;;;;;;;;;;;25.61;52.00;97041.00;4229890;28;5763;-62
2022/06/05 17:00:31;;;;;;;;;;;;;;;25.62;52.22;97042.63;4223563;28;5792;-62
2022/06/05 17:02:45;;;;;;;;;;;;;;;25.64;52.09;97040.44;4231152;28;5713;-62
2022/06/05 17:05:16;;;;;;;;;;;;;;;25.65;51.82;97049.38;4220944;28;5724;-62
2022/06/05 17:07:26;;;;;;;;;;;;;;;25.63;51.87;97055.06;4212050;28;5727;-65
2022/06/05 17:09:32;;;;;;;;;;;;;;;25.63;51.70;97056.97;4233248;28;5700;-64
2022/06/05 17:11:37;;;;;;;;;;;;;;;25.62;51.91;97060.75;4226184;28;6412;-64
2022/06/05 17:13:45;;;;;;;;;;;;;;;25.62;51.82;97058.88;4221401;28;5783;-64
2022/06/05 17:15:54;;;;;;;;;;;;;;;25.62;51.98;97053.44;4222724;28;5708;-65
2022/06/05 17:18:13;;;;;;;;;;;;;;;25.65;51.87;97055.59;4221182;28;5788;-64
2022/06/05 17:20:24;;;;;;;;;;;;;;;25.66;51.63;97048.28;4223168;28;5708;-67
2022/06/05 17:22:31;;;;;;;;;;;;;;;25.68;51.80;97051.50;4229500;28;5829;-67
2022/06/05 17:25:08;;;;;;;;;;;;;;;25.67;51.92;97053.41;4226939;28;5829;-68
2022/06/05 17:27:37;;;;;;;;;;;;;;;25.66;51.83;97050.97;4216992;28;5813;-66
2022/06/05 17:30:04;;;;;;;;;;;;;;;25.64;51.50;97051.25;4225101;28;5716;-65
2022/06/05 17:32:18;;;;;;;;;;;;;;;25.62;51.70;97055.34;4229530;28;5745;-66
2022/06/05 17:34:33;;;;;;;;;;;;;;;25.61;51.54;97064.56;4217635;28;5696;-64
2022/06/05 17:36:56;;;;;;;;;;;;;;;25.56;51.48;97054.56;4228187;28;5719;-64
2022/06/05 17:39:13;;;;;;;;;;;;;;;25.55;51.87;97058.38;4224782;28;5787;-67
2022/06/05 17:41:26;;;;;;;;;;;;;;;25.53;51.90;97055.94;4225212;28;5822;-65
2022/06/05 17:43:32;;;;;;;;;;;;;;;25.53;51.88;97055.94;4230580;28;5711;-63
2022/06/05 17:45:49;;;;;;;;;;;;;;;25.53;51.97;97065.97;4226486;28;5772;-63
2022/06/05 17:48:06;;;;;;;;;;;;;;;25.51;51.98;97066.25;4227984;28;5760;-63
2022/06/05 17:50:19;;;;;;;;;;;;;;;25.50;51.62;97061.94;4223109;28;5829;-63
2022/06/05 17:52:27;;;;;;;;;;;;;;;25.51;51.91;97074.38;4219838;28;5821;-63
2022/06/05 17:54:36;;;;;;;;;;;;;;;25.49;51.61;97076.56;4228038;28;6476;-63
2022/06/05 17:56:44;;;;;;;;;;;;;;;25.48;52.04;97077.66;4226442;28;5709;-63
2022/06/05 17:58:48;;;;;;;;;;;;;;;25.45;51.86;97078.19;4230172;27;5724;-63
2022/06/05 18:00:57;;;;;;;;;;;;;;;25.48;51.62;97076.81;4218613;28;5735;-63
2022/06/05 18:03:06;;;;;;;;;;;;;;;25.52;51.53;97078.69;4233762;27;5662;-64
2022/06/05 18:05:23;;;;;;;;;;;;;;;25.52;51.88;97072.47;4227114;28;5696;-64
2022/06/05 18:07:32;;;;;;;;;;;;;;;25.51;51.75;97079.78;4230134;28;5724;-63
2022/06/05 18:09:35;;;;;;;;;;;;;;;25.50;51.60;97077.38;4228838;27;5843;-65
2022/06/05 18:11:42;;;;;;;;;;;;;;;25.49;51.62;97075.75;4225411;27;5825;-67
2022/06/05 18:13:49;;;;;;;;;;;;;;;25.47;51.50;97084.13;4224051;28;5708;-66
2022/06/05 18:15:54;;;;;;;;;;;;;;;25.46;51.62;97079.81;4229853;28;5697;-68
2022/06/05 18:18:02;;;;;;;;;;;;;;;25.46;51.53;97074.41;4226690;27;5714;-65
2022/06/05 18:20:16;;;;;;;;;;;;;;;25.46;51.40;97079.00;4225022;28;5796;-68
2022/06/05 18:22:33;;;;;;;;;;;;;;;25.46;51.42;97077.09;4225947;28;5724;-68
2022/06/05 18:24:39;;;;;;;;;;;;;;;25.49;51.57;97079.25;4221888;28;5716;-65
2022/06/05 18:26:55;;;;;;;;;;;;;;;25.50;51.15;97078.19;4213371;28;5846;-65
2022/06/05 18:28:58;;;;;;;;;;;;;;;25.50;51.10;97083.59;4225417;28;5711;-66
2022/06/05 18:31:10;;;;;;;;;;;;;;;25.47;50.91;97084.13;4230006;28;6662;-66
2022/06/05 18:33:40;;;;;;;;;;;;;;;25.47;51.09;97091.44;4221202;28;5708;-63
2022/06/05 18:38:18;;;;;;;;;;;;;;;25.45;51.06;97090.91;4213224;28;5726;-65
2022/06/05 18:40:24;;;;;;;;;;;;;;;25.42;50.78;97086.88;4232288;27;5997;-65
2022/06/05 18:42:31;;;;;;;;;;;;;;;25.43;50.84;97083.09;4231219;28;5701;-65
2022/06/05 18:44:37;;;;;;;;;;;;;;;25.40;50.86;97078.25;4228051;28;5616;-66
2022/06/05 18:46:40;;;;;;;;;;;;;;;25.42;50.66;97072.53;4227451;27;5685;-68
2022/06/05 18:48:44;;;;;;;;;;;;;;;25.42;50.72;97083.38;4230134;27;5721;-70
2022/06/05 18:50:54;;;;;;;;;;;;;;;25.41;50.78;97084.47;4237555;27;5688;-72
2022/06/05 18:53:00;;;;;;;;;;;;;;;25.41;50.86;97093.38;4239479;27;5700;-68
2022/06/05 18:55:12;;;;;;;;;;;;;;;25.40;50.49;97089.06;4230436;28;6000;-70
2022/06/05 18:57:23;;;;;;;;;;;;;;;25.38;50.84;97091.25;4227771;28;5699;-67
2022/06/05 18:59:29;;;;;;;;;;;;;;;25.37;50.74;97099.63;4225578;27;6825;-66
2022/06/05 19:01:34;;;;;;;;;;;;;;;25.33;50.92;97099.38;4225006;27;5695;-69
2022/06/05 19:03:39;;;;;;;;;;;;;;;25.31;50.75;97106.97;4237056;27;5734;-70
2022/06/05 19:05:46;;;;;;;;;;;;;;;25.31;51.12;97112.38;4228170;27;7120;-69
2022/06/05 19:07:50;;;;;;;;;;;;;;;25.29;50.75;97111.06;4227358;28;5696;-69
2022/06/05 19:09:55;;;;;;;;;;;;;;;25.29;50.99;97103.75;4205801;28;5750;-71
2022/06/05 19:12:04;;;;;;;;;;;;;;;25.27;50.68;97097.81;4232156;27;5720;-67
2022/06/05 19:14:13;;;;;;;;;;;;;;;25.25;50.75;97097.25;4220694;28;5704;-69
2022/06/05 19:16:26;;;;;;;;;;;;;;;25.24;51.00;97099.16;4224208;28;5707;-67
2022/06/05 19:18:35;;;;;;;;;;;;;;;25.22;51.09;97095.94;4223335;28;5769;-66
2022/06/05 19:20:42;;;;;;;;;;;;;;;25.20;51.10;97100.00;4225627;28;5785;-68
2022/06/05 19:22:47;;;;;;;;;;;;;;;25.19;51.25;97103.81;4229929;28;5697;-69
2022/06/05 19:24:57;;;;;;;;;;;;;;;25.18;50.89;97102.19;4229244;28;5708;-68
2022/06/05 19:27:02;;;;;;;;;;;;;;;25.15;51.30;97108.97;4231286;27;5850;-70
2022/06/05 19:29:10;;;;;;;;;;;;;;;25.11;51.01;97113.31;4242232;27;5796;-70
2022/06/05 19:31:25;;;;;;;;;;;;;;;25.09;50.91;97117.38;4225071;27;5644;-76
2022/06/05 19:33:32;;;;;;;;;;;;;;;25.05;51.19;97119.03;4227986;28;5722;-71
2022/06/05 19:36:04;;;;;;;;;;;;;;;25.04;51.33;97128.25;4220787;28;5983;-71
2022/06/05 19:38:04;;;;;;;;;;;;;;;25.05;51.51;97129.84;4227348;28;5696;-71
2022/06/05 19:40:18;;;;;;;;;;;;;;;25.03;51.22;97132.84;4229536;28;5699;-67
2022/06/05 19:42:30;;;;;;;;;;;;;;;25.02;51.40;97136.59;4223038;28;5718;-68
2022/06/05 19:44:38;;;;;;;;;;;;;;;25.01;51.71;97144.97;4211396;28;5784;-66
2022/06/05 19:46:44;;;;;;;;;;;;;;;24.99;51.54;97147.94;4230125;27;5699;-67
2022/06/05 19:49:17;;;;;;;;;;;;;;;24.97;51.41;97148.22;4228371;27;5902;-68
2022/06/05 19:51:26;;;;;;;;;;;;;;;24.95;51.75;97142.28;4227030;28;5704;-66
2022/06/05 19:53:53;;;;;;;;;;;;;;;24.94;51.75;97151.50;4225204;28;5792;-73
2022/06/05 19:55:57;;;;;;;;;;;;;;;24.92;51.45;97153.69;4222597;28;5775;-74
2022/06/05 19:58:05;;;;;;;;;;;;;;;24.93;51.72;97160.69;4235435;27;5693;-68
2022/06/05 20:00:28;;;;;;;;;;;;;;;24.91;51.81;97152.03;4230722;27;5705;-71
2022/06/05 20:02:32;;;;;;;;;;;;;;;24.89;51.64;97153.41;4225404;28;5759;-71
2022/06/05 20:04:51;;;;;;;;;;;;;;;24.87;51.54;97166.38;4225087;27;5681;-67